Time;durP1;ratioP1;P1;durP2;ratioP2;P2;SDS_P1;SDS_P2;PMS_P1;PMS_P2;Temp;Humidity;BMP_temperature;BMP_pressure;BME280_temperature;BME280_humidity;BME280_pressure;Samples;Min_cycle;Max_cycle;Signal;HPM_P1;HPM_P2
2021/12/15 00:00:24;;;;;;;43.72;24.92;;;10.30;99.90;;;;;;5072286;28;20457;-71
2021/12/15 00:02:51;;;;;;;45.17;24.23;;;10.30;99.90;;;;;;5081773;28;20044;-70
2021/12/15 00:05:23;;;;;;;40.65;24.50;;;10.30;99.90;;;;;;5094497;28;20036;-71
2021/12/15 00:08:00;;;;;;;41.35;24.98;;;10.30;99.90;;;;;;5094653;28;20425;-72
2021/12/15 00:10:27;;;;;;;43.50;24.98;;;10.30;99.90;;;;;;5095021;28;20043;-71
2021/12/15 00:12:54;;;;;;;42.47;24.45;;;10.30;99.90;;;;;;5094540;28;20072;-71
2021/12/15 00:15:23;;;;;;;44.95;25.77;;;10.40;99.90;;;;;;5094431;28;20119;-71
2021/12/15 00:17:49;;;;;;;44.90;26.45;;;10.30;99.90;;;;;;5093404;28;20487;-71
2021/12/15 00:20:17;;;;;;;40.80;24.42;;;10.30;99.90;;;;;;5094354;28;20052;-71
2021/12/15 00:22:43;;;;;;;46.47;26.33;;;10.30;99.90;;;;;;5093482;28;20044;-71
2021/12/15 00:25:11;;;;;;;43.53;25.67;;;10.30;99.90;;;;;;5094436;28;20356;-71
2021/12/15 00:27:37;;;;;;;41.97;24.70;;;10.30;99.90;;;;;;5094482;28;20040;-72
2021/12/15 00:30:05;;;;;;;43.67;26.05;;;10.30;99.90;;;;;;5094582;28;20040;-71
2021/12/15 00:32:31;;;;;;;44.30;25.27;;;10.30;99.90;;;;;;5093984;28;20457;-71
2021/12/15 00:34:57;;;;;;;43.35;24.90;;;10.30;99.90;;;;;;5094375;28;20054;-72
2021/12/15 00:37:22;;;;;;;46.15;26.40;;;10.30;99.90;;;;;;5094143;28;20118;-71
2021/12/15 00:39:48;;;;;;;49.50;26.15;;;10.30;99.90;;;;;;5094014;28;20040;-71
2021/12/15 00:42:15;;;;;;;45.15;25.92;;;10.30;99.90;;;;;;5094246;28;20032;-72
2021/12/15 00:44:41;;;;;;;48.65;26.02;;;10.30;99.90;;;;;;5092765;28;20437;-71
2021/12/15 00:47:08;;;;;;;42.58;25.67;;;10.30;99.90;;;;;;5094267;28;20082;-71
2021/12/15 00:49:35;;;;;;;43.90;25.30;;;10.30;99.90;;;;;;5094118;28;20342;-71
2021/12/15 00:52:01;;;;;;;49.53;27.33;;;10.30;99.90;;;;;;5094228;28;20028;-71
2021/12/15 00:54:27;;;;;;;53.30;26.33;;;10.30;99.90;;;;;;5093506;28;20048;-71
2021/12/15 00:56:54;;;;;;;53.80;28.55;;;10.30;99.90;;;;;;5094294;28;20092;-71
2021/12/15 00:59:21;;;;;;;45.80;25.98;;;10.20;99.90;;;;;;5093904;28;20050;-71
2021/12/15 01:01:48;;;;;;;49.88;27.73;;;10.30;99.90;;;;;;5093235;28;20040;-71
2021/12/15 01:04:16;;;;;;;44.65;25.67;;;10.30;99.90;;;;;;5093538;28;20036;-71
2021/12/15 01:06:45;;;;;;;48.25;26.58;;;10.20;99.90;;;;;;5094309;28;20040;-71
2021/12/15 01:09:18;;;;;;;50.90;26.83;;;10.30;99.90;;;;;;5094131;28;20048;-71
2021/12/15 01:20:15;;;;;;;45.95;25.90;;;10.20;99.90;;;;;;5073393;28;20457;-71
2021/12/15 01:22:45;;;;;;;48.45;25.58;;;10.20;99.90;;;;;;5079400;28;20047;-72
2021/12/15 01:25:16;;;;;;;50.13;26.25;;;10.20;99.90;;;;;;5093773;28;20067;-71
2021/12/15 01:27:41;;;;;;;46.83;25.48;;;10.30;99.90;;;;;;5094122;28;20040;-71
2021/12/15 01:30:10;;;;;;;53.75;26.73;;;10.30;99.90;;;;;;5094247;28;20111;-71
2021/12/15 01:32:36;;;;;;;52.60;25.75;;;10.20;99.90;;;;;;5093120;28;20037;-73
2021/12/15 01:35:02;;;;;;;51.72;26.13;;;10.20;99.90;;;;;;5093400;28;20036;-72
2021/12/15 01:37:28;;;;;;;51.92;26.15;;;10.20;99.90;;;;;;5092732;28;20549;-71
2021/12/15 01:39:55;;;;;;;50.28;24.80;;;10.20;99.90;;;;;;5093385;28;20068;-71
2021/12/15 01:42:28;;;;;;;44.13;24.20;;;10.20;99.90;;;;;;5075946;28;20107;-72
2021/12/15 01:47:39;;;;;;;44.05;24.80;;;10.20;99.90;;;;;;5093765;28;20109;-72
2021/12/15 01:50:06;;;;;;;41.20;23.10;;;10.30;99.90;;;;;;5093645;28;20028;-72
2021/12/15 01:52:35;;;;;;;48.10;24.83;;;10.30;99.90;;;;;;5093497;28;20032;-72
2021/12/15 01:55:07;;;;;;;48.90;25.58;;;10.20;99.90;;;;;;5093311;28;20384;-71
2021/12/15 01:57:35;;;;;;;47.25;23.58;;;10.30;99.90;;;;;;5093548;28;20079;-72
2021/12/15 02:00:07;;;;;;;50.83;25.90;;;10.20;99.90;;;;;;5093673;28;20054;-72
2021/12/15 02:02:33;;;;;;;45.92;24.58;;;10.20;99.90;;;;;;5093208;28;20040;-71
2021/12/15 02:04:58;;;;;;;52.60;25.48;;;10.20;99.90;;;;;;5093116;28;20093;-72
2021/12/15 02:07:25;;;;;;;48.90;25.02;;;10.20;99.90;;;;;;5093427;28;20040;-71
2021/12/15 02:12:23;;;;;;;49.67;25.23;;;10.20;99.90;;;;;;5093130;28;20093;-72
2021/12/15 02:14:49;;;;;;;55.10;27.05;;;10.20;99.90;;;;;;5095457;28;20135;-72
2021/12/15 02:17:15;;;;;;;48.92;26.00;;;10.20;99.90;;;;;;5097430;28;20055;-72
2021/12/15 02:19:41;;;;;;;53.72;26.65;;;10.30;99.90;;;;;;5096572;28;20028;-72
2021/12/15 02:22:07;;;;;;;55.53;27.38;;;10.30;99.90;;;;;;5096888;28;20044;-71
2021/12/15 02:24:35;;;;;;;51.30;26.63;;;10.20;99.90;;;;;;5096511;28;20048;-71
2021/12/15 02:27:02;;;;;;;49.42;27.13;;;10.20;99.90;;;;;;5096533;28;20468;-72
2021/12/15 02:29:33;;;;;;;46.58;25.70;;;10.30;99.90;;;;;;5096462;28;20054;-72
2021/12/15 02:32:11;;;;;;;56.40;27.20;;;10.30;99.90;;;;;;5096420;28;20032;-72
2021/12/15 02:37:22;;;;;;;56.53;28.83;;;10.30;99.90;;;;;;5076386;28;20105;-72
2021/12/15 02:39:48;;;;;;;57.40;29.13;;;10.20;99.90;;;;;;5076325;28;20055;-71
2021/12/15 02:42:14;;;;;;;55.13;29.70;;;10.20;99.90;;;;;;5076378;28;20040;-72
2021/12/15 02:44:43;;;;;;;52.78;28.75;;;10.30;99.90;;;;;;5095866;28;20481;-72
2021/12/15 02:47:12;;;;;;;55.00;29.42;;;10.20;99.90;;;;;;5096576;28;20044;-72
2021/12/15 02:49:38;;;;;;;57.63;29.77;;;10.20;99.90;;;;;;5095552;28;20043;-72
2021/12/15 02:52:05;;;;;;;57.92;30.00;;;10.30;99.90;;;;;;5096465;28;20127;-73
2021/12/15 02:54:30;;;;;;;63.63;30.80;;;10.30;99.90;;;;;;5095834;28;20441;-72
2021/12/15 02:57:04;;;;;;;58.10;31.83;;;10.20;99.90;;;;;;5096558;28;20043;-72
2021/12/15 02:59:36;;;;;;;51.38;28.40;;;10.30;99.90;;;;;;5095176;28;20059;-72
2021/12/15 03:02:17;;;;;;;58.97;30.58;;;10.30;99.90;;;;;;5095796;28;20473;-72
2021/12/15 03:07:27;;;;;;;58.92;31.48;;;10.30;99.90;;;;;;5076094;28;20059;-72
2021/12/15 03:15:32;;;;;;;66.57;32.33;;;10.20;99.90;;;;;;5095903;28;20040;-72
2021/12/15 03:18:15;;;;;;;59.03;31.73;;;10.20;99.90;;;;;;5096135;28;20089;-72
2021/12/15 03:20:55;;;;;;;57.50;31.02;;;10.20;99.90;;;;;;5095830;28;20143;-71
2021/12/15 03:23:27;;;;;;;61.38;31.65;;;10.20;99.90;;;;;;5095370;28;20178;-72
2021/12/15 03:25:54;;;;;;;59.65;31.63;;;10.20;99.90;;;;;;5095085;28;20177;-72
2021/12/15 03:36:51;;;;;;;60.58;30.60;;;10.20;99.90;;;;;;5095863;28;20047;-71
2021/12/15 03:39:18;;;;;;;64.97;33.15;;;10.20;99.90;;;;;;5095514;28;20068;-72
2021/12/15 03:41:44;;;;;;;62.65;33.80;;;10.20;99.90;;;;;;5094170;28;20036;-72
2021/12/15 03:44:09;;;;;;;63.72;35.70;;;10.20;99.90;;;;;;5094938;28;20059;-72
2021/12/15 03:46:36;;;;;;;64.45;34.28;;;10.20;99.90;;;;;;5095297;28;20089;-72
2021/12/15 03:49:03;;;;;;;61.20;34.00;;;10.20;99.90;;;;;;5094883;28;20039;-71
2021/12/15 03:51:29;;;;;;;61.72;33.08;;;10.20;99.90;;;;;;5095230;28;20120;-71
2021/12/15 03:53:54;;;;;;;68.15;34.92;;;10.10;99.90;;;;;;5094295;28;20123;-71
2021/12/15 03:56:20;;;;;;;64.25;34.60;;;10.20;99.90;;;;;;5095386;28;20040;-72
2021/12/15 03:58:47;;;;;;;53.70;31.88;;;10.20;99.90;;;;;;5087252;28;20211;-71
2021/12/15 04:01:17;;;;;;;66.72;35.92;;;10.20;99.90;;;;;;5073959;28;20119;-71
2021/12/15 04:03:46;;;;;;;62.80;35.17;;;10.20;99.90;;;;;;5087311;28;20372;-71
2021/12/15 04:06:23;;;;;;;65.25;36.85;;;10.20;99.90;;;;;;5094719;28;20040;-71
2021/12/15 04:08:50;;;;;;;66.90;37.28;;;10.20;99.90;;;;;;5095160;28;20058;-71
2021/12/15 04:11:19;;;;;;;65.13;36.10;;;10.10;99.90;;;;;;5095044;28;20036;-71
2021/12/15 04:13:47;;;;;;;64.55;35.47;;;10.20;99.90;;;;;;5094379;28;20123;-71
2021/12/15 04:16:37;;;;;;;61.50;34.50;;;10.10;99.90;;;;;;5094882;28;20075;-72
2021/12/15 04:19:07;;;;;;;63.03;36.83;;;10.10;99.90;;;;;;5094444;28;20101;-71
2021/12/15 04:21:34;;;;;;;61.70;35.75;;;10.10;99.90;;;;;;5094221;28;20091;-71
2021/12/15 04:23:59;;;;;;;64.47;36.85;;;10.10;99.90;;;;;;5094164;28;20097;-72
2021/12/15 04:26:27;;;;;;;64.28;36.55;;;10.10;99.90;;;;;;5094922;28;20036;-71
2021/12/15 04:28:53;;;;;;;62.10;34.67;;;10.10;99.90;;;;;;5094577;28;20032;-71
2021/12/15 04:31:22;;;;;;;67.45;37.72;;;10.10;99.90;;;;;;5094496;28;20044;-72
2021/12/15 04:33:55;;;;;;;65.57;35.85;;;10.10;99.90;;;;;;5093927;28;20083;-71
2021/12/15 04:36:24;;;;;;;64.68;36.28;;;10.10;99.90;;;;;;5094125;28;20032;-71
2021/12/15 04:38:51;;;;;;;63.92;36.78;;;10.10;99.90;;;;;;5093325;28;20052;-71
2021/12/15 04:41:19;;;;;;;61.42;35.58;;;10.10;99.90;;;;;;5094137;28;20122;-71
2021/12/15 04:43:55;;;;;;;64.25;35.65;;;10.10;99.90;;;;;;5093557;28;20039;-71
2021/12/15 04:46:22;;;;;;;59.83;36.03;;;10.10;99.90;;;;;;5094176;28;20081;-72
2021/12/15 04:48:48;;;;;;;68.95;37.97;;;10.10;99.90;;;;;;5093913;28;20070;-71
2021/12/15 04:51:14;;;;;;;61.25;35.80;;;10.10;99.90;;;;;;5094322;28;20028;-71
2021/12/15 04:53:41;;;;;;;61.35;36.53;;;10.10;99.90;;;;;;5093563;28;20101;-71
2021/12/15 04:56:07;;;;;;;68.15;37.70;;;10.10;99.90;;;;;;5094238;28;20058;-71
2021/12/15 04:58:34;;;;;;;63.35;37.95;;;10.10;99.90;;;;;;5088423;28;20040;-71
2021/12/15 05:01:03;;;;;;;62.72;37.05;;;10.10;99.90;;;;;;5073727;28;20473;-71
2021/12/15 05:03:29;;;;;;;59.25;36.15;;;10.10;99.90;;;;;;5082973;28;20058;-71
2021/12/15 05:05:55;;;;;;;66.88;38.15;;;10.00;99.90;;;;;;5093850;28;20035;-71
2021/12/15 05:08:21;;;;;;;61.95;38.13;;;10.10;99.90;;;;;;5093986;28;20067;-71
2021/12/15 05:10:47;;;;;;;65.72;38.90;;;10.10;99.90;;;;;;5093893;28;20036;-71
2021/12/15 05:13:14;;;;;;;69.53;38.38;;;10.10;99.90;;;;;;5092674;28;20361;-71
2021/12/15 05:15:40;;;;;;;67.40;38.53;;;10.10;99.90;;;;;;5093592;28;20036;-71
2021/12/15 05:18:07;;;;;;;68.80;37.85;;;10.10;99.90;;;;;;5093702;28;20361;-71
2021/12/15 05:20:35;;;;;;;61.55;36.30;;;10.10;99.90;;;;;;5093625;28;20056;-71
2021/12/15 05:23:03;;;;;;;64.82;35.75;;;10.10;99.90;;;;;;5093696;28;20044;-72
2021/12/15 05:25:29;;;;;;;66.63;36.53;;;10.10;99.90;;;;;;5093104;28;20039;-71
2021/12/15 05:27:54;;;;;;;60.72;36.00;;;10.10;99.90;;;;;;5093541;28;20036;-70
2021/12/15 05:30:21;;;;;;;64.53;35.60;;;10.10;99.90;;;;;;5093517;28;20050;-71
2021/12/15 05:32:47;;;;;;;64.00;36.15;;;10.10;99.90;;;;;;5093284;28;20038;-71
2021/12/15 05:35:20;;;;;;;61.65;35.45;;;10.00;99.90;;;;;;5092952;28;20040;-71
2021/12/15 05:37:46;;;;;;;59.63;35.25;;;10.10;99.90;;;;;;5093786;28;20107;-71
2021/12/15 05:40:12;;;;;;;66.65;36.75;;;10.10;99.90;;;;;;5074487;28;20063;-72
2021/12/15 05:42:38;;;;;;;62.30;35.03;;;10.10;99.90;;;;;;5074768;28;20450;-72
2021/12/15 05:45:05;;;;;;;66.95;37.65;;;10.10;99.90;;;;;;5073443;28;20043;-72
2021/12/15 05:47:31;;;;;;;59.53;35.40;;;10.10;99.90;;;;;;5072709;28;20036;-71
2021/12/15 05:49:57;;;;;;;61.10;36.05;;;10.10;99.90;;;;;;5076809;28;20457;-71
2021/12/15 05:52:26;;;;;;;64.68;36.55;;;10.10;99.90;;;;;;5077621;28;20032;-72
2021/12/15 05:54:52;;;;;;;58.50;35.33;;;10.10;99.90;;;;;;5076159;28;20120;-71
2021/12/15 05:57:18;;;;;;;61.40;36.95;;;10.00;99.90;;;;;;5076503;28;20201;-71
2021/12/15 05:59:43;;;;;;;62.53;36.20;;;10.10;99.90;;;;;;5076543;28;20049;-71
2021/12/15 06:02:09;;;;;;;64.35;35.47;;;10.10;99.90;;;;;;5076448;28;20040;-71
2021/12/15 06:04:35;;;;;;;57.85;33.83;;;10.10;99.90;;;;;;5078966;28;20040;-71
2021/12/15 06:07:01;;;;;;;63.08;35.95;;;10.10;99.90;;;;;;5075975;28;20045;-71
2021/12/15 06:09:26;;;;;;;63.88;35.90;;;10.10;99.90;;;;;;5076509;28;20029;-71
2021/12/15 06:11:53;;;;;;;60.88;34.42;;;10.10;99.90;;;;;;5076058;28;20488;-72
2021/12/15 06:14:23;;;;;;;67.07;35.22;;;10.10;99.90;;;;;;5079424;28;20040;-71
2021/12/15 06:16:51;;;;;;;56.83;34.55;;;10.10;99.90;;;;;;5076159;28;20051;-71
2021/12/15 06:19:17;;;;;;;59.55;34.75;;;10.10;99.90;;;;;;5076133;28;20043;-71
2021/12/15 06:21:43;;;;;;;59.00;33.08;;;10.10;99.90;;;;;;5076235;28;20053;-72
2021/12/15 06:24:08;;;;;;;59.55;33.70;;;10.10;99.90;;;;;;5091679;28;20066;-70
2021/12/15 06:26:34;;;;;;;61.35;35.28;;;10.10;99.90;;;;;;5082883;28;20043;-70
2021/12/15 06:29:00;;;;;;;61.25;34.53;;;10.10;99.90;;;;;;5076002;28;20032;-71
2021/12/15 06:31:26;;;;;;;65.03;33.03;;;10.10;99.90;;;;;;5075547;28;20536;-71
2021/12/15 06:33:52;;;;;;;60.05;34.35;;;10.10;99.90;;;;;;5088642;28;20054;-72
2021/12/15 06:36:21;;;;;;;61.42;33.03;;;10.10;99.90;;;;;;5096709;28;20032;-73
2021/12/15 06:38:50;;;;;;;58.92;32.50;;;10.10;99.90;;;;;;5087004;28;20043;-73
2021/12/15 06:41:16;;;;;;;62.45;32.88;;;10.10;99.90;;;;;;5075589;28;20043;-72
2021/12/15 06:43:46;;;;;;;61.05;33.28;;;10.10;99.90;;;;;;5076481;28;20028;-72
2021/12/15 06:46:57;;;;;;;62.30;33.65;;;10.10;99.90;;;;;;5075985;28;20071;-72
2021/12/15 06:59:53;;;;;;;61.45;31.95;;;10.10;99.90;;;;;;5074577;28;20090;-74
2021/12/15 07:02:19;;;;;;;55.85;33.15;;;10.10;99.90;;;;;;5086213;28;20033;-72
2021/12/15 07:04:45;;;;;;;52.47;31.77;;;10.10;99.90;;;;;;5095842;28;20551;-71
2021/12/15 07:07:11;;;;;;;58.03;33.55;;;10.10;99.90;;;;;;5094603;28;20070;-72
2021/12/15 07:09:37;;;;;;;56.35;31.58;;;10.10;99.90;;;;;;5095025;28;20040;-71
2021/12/15 07:12:04;;;;;;;59.10;32.45;;;10.10;99.90;;;;;;5095956;28;20046;-71
2021/12/15 07:14:30;;;;;;;60.65;32.25;;;10.00;99.90;;;;;;5095371;28;20036;-71
2021/12/15 07:16:58;;;;;;;57.70;32.22;;;10.00;99.90;;;;;;5096393;28;20032;-71
2021/12/15 07:22:06;;;;;;;56.35;30.90;;;10.00;99.90;;;;;;5095625;28;20066;-71
2021/12/15 07:24:33;;;;;;;62.17;32.70;;;10.10;99.90;;;;;;5095494;28;20380;-72
2021/12/15 07:27:00;;;;;;;59.10;31.70;;;10.00;99.90;;;;;;5095876;28;20036;-71
2021/12/15 07:29:27;;;;;;;52.53;30.92;;;10.00;99.90;;;;;;5095095;28;20032;-71
2021/12/15 07:31:52;;;;;;;58.22;32.35;;;10.00;99.90;;;;;;5095726;28;20142;-71
2021/12/15 07:34:18;;;;;;;56.10;32.13;;;10.00;99.90;;;;;;5094766;28;20119;-72
2021/12/15 07:36:44;;;;;;;55.15;30.60;;;10.00;99.90;;;;;;5095494;28;20035;-71
2021/12/15 07:39:11;;;;;;;57.17;32.38;;;10.00;99.90;;;;;;5095845;28;20358;-72
2021/12/15 07:41:49;;;;;;;60.53;32.40;;;10.00;99.90;;;;;;5077790;28;20036;-72
2021/12/15 07:44:16;;;;;;;57.95;31.08;;;10.00;99.90;;;;;;5094978;28;20051;-72
2021/12/15 07:46:47;;;;;;;55.75;31.05;;;10.00;99.90;;;;;;5095542;28;20031;-72
2021/12/15 07:49:14;;;;;;;56.95;30.92;;;10.00;99.90;;;;;;5095158;28;20040;-72
2021/12/15 07:51:43;;;;;;;54.03;31.25;;;10.10;99.90;;;;;;5095378;28;20063;-72
2021/12/15 07:54:09;;;;;;;60.70;32.20;;;10.00;99.90;;;;;;5094965;28;20178;-72
2021/12/15 07:56:35;;;;;;;49.92;29.98;;;10.00;99.90;;;;;;5095395;28;20513;-71
2021/12/15 07:59:00;;;;;;;56.17;29.98;;;10.00;99.90;;;;;;5095246;28;20047;-72
2021/12/15 08:01:26;;;;;;;55.13;30.38;;;10.00;99.90;;;;;;5094199;28;20456;-71
2021/12/15 08:03:54;;;;;;;59.28;31.83;;;10.10;99.90;;;;;;5094261;28;20071;-72
2021/12/15 08:06:22;;;;;;;52.67;30.02;;;10.00;99.90;;;;;;5095312;28;20109;-72
2021/12/15 08:08:48;;;;;;;56.35;30.65;;;10.00;99.90;;;;;;5094587;28;20047;-72
2021/12/15 08:11:14;;;;;;;58.63;30.23;;;10.00;99.90;;;;;;5094842;28;20032;-72
2021/12/15 08:13:39;;;;;;;55.95;29.02;;;10.00;99.90;;;;;;5094346;28;20166;-72
2021/12/15 08:16:05;;;;;;;54.60;31.02;;;10.00;99.90;;;;;;5085337;28;20123;-70
2021/12/15 08:18:32;;;;;;;55.78;31.17;;;10.10;99.90;;;;;;5074607;28;20097;-71
2021/12/15 08:20:58;;;;;;;58.20;29.88;;;10.00;99.90;;;;;;5074157;28;20190;-71
2021/12/15 08:23:24;;;;;;;57.03;30.45;;;10.10;99.90;;;;;;5082242;28;20059;-72
2021/12/15 08:25:50;;;;;;;61.38;30.50;;;10.10;99.90;;;;;;5094201;28;20036;-74
2021/12/15 08:28:16;;;;;;;51.25;29.92;;;10.10;99.90;;;;;;5094498;28;20416;-73
2021/12/15 08:30:45;;;;;;;55.80;31.25;;;10.10;99.90;;;;;;5094630;28;20103;-72
2021/12/15 08:33:14;;;;;;;57.42;30.70;;;10.10;99.90;;;;;;5094243;28;20089;-71
2021/12/15 08:35:47;;;;;;;59.50;30.45;;;10.10;99.90;;;;;;5094379;28;20058;-72
2021/12/15 08:38:13;;;;;;;52.80;29.23;;;10.20;99.90;;;;;;5093707;28;20040;-71
2021/12/15 08:40:40;;;;;;;64.57;32.40;;;10.20;99.90;;;;;;5094736;28;20115;-70
2021/12/15 08:43:07;;;;;;;58.35;29.45;;;10.20;99.90;;;;;;5093923;28;20036;-73
2021/12/15 08:45:35;;;;;;;62.20;32.38;;;10.20;99.90;;;;;;5092768;28;20035;-71
2021/12/15 08:48:03;;;;;;;60.70;29.88;;;10.20;99.90;;;;;;5085482;28;20045;-70
2021/12/15 08:50:32;;;;;;;57.58;28.63;;;10.20;99.90;;;;;;5073918;28;20032;-70
2021/12/15 08:52:58;;;;;;;55.83;29.77;;;10.20;99.90;;;;;;5078072;28;20127;-73
2021/12/15 08:55:25;;;;;;;55.80;29.95;;;10.20;99.90;;;;;;5093461;28;20400;-72
2021/12/15 08:57:54;;;;;;;58.10;29.90;;;10.20;99.90;;;;;;5094226;28;20078;-72
2021/12/15 09:00:21;;;;;;;53.08;27.42;;;10.20;99.90;;;;;;5093806;28;20461;-72
2021/12/15 09:02:47;;;;;;;55.78;29.58;;;10.20;99.90;;;;;;5093760;28;20047;-73
2021/12/15 09:05:20;;;;;;;57.42;29.98;;;10.20;99.90;;;;;;5090925;28;20360;-68
2021/12/15 09:07:47;;;;;;;57.45;29.95;;;10.20;99.90;;;;;;5092851;28;20078;-72
2021/12/15 09:10:13;;;;;;;55.45;29.60;;;10.20;99.90;;;;;;5093782;28;20028;-71
2021/12/15 09:12:39;;;;;;;61.63;31.13;;;10.20;99.90;;;;;;5091646;28;20036;-73
2021/12/15 09:15:06;;;;;;;64.38;30.10;;;10.30;99.90;;;;;;5091400;28;20126;-73
2021/12/15 09:17:32;;;;;;;55.13;29.63;;;10.30;99.90;;;;;;5092073;28;20093;-74
2021/12/15 09:19:58;;;;;;;54.20;29.75;;;10.40;99.90;;;;;;5092087;28;20060;-72
2021/12/15 09:22:23;;;;;;;59.35;31.98;;;10.40;99.90;;;;;;5091493;28;20043;-73
2021/12/15 09:24:49;;;;;;;52.45;29.38;;;10.40;99.90;;;;;;5093087;28;20032;-73
2021/12/15 09:27:15;;;;;;;58.28;30.55;;;10.40;99.90;;;;;;5093320;28;20040;-72
2021/12/15 09:29:40;;;;;;;57.38;29.55;;;10.50;99.90;;;;;;5093513;28;20052;-72
2021/12/15 09:32:06;;;;;;;59.60;30.08;;;10.40;99.90;;;;;;5093253;28;20040;-72
2021/12/15 09:34:32;;;;;;;56.47;28.83;;;10.40;99.90;;;;;;5093056;28;20067;-72
2021/12/15 09:36:58;;;;;;;51.80;29.85;;;10.40;99.90;;;;;;5093329;28;20617;-72
2021/12/15 09:39:24;;;;;;;52.60;28.90;;;10.40;99.90;;;;;;5093560;28;20040;-73
2021/12/15 09:41:51;;;;;;;59.45;30.20;;;10.50;99.90;;;;;;5093303;28;20044;-73
2021/12/15 09:44:22;;;;;;;56.85;28.60;;;10.50;99.90;;;;;;5087671;28;20424;-73
2021/12/15 10:01:53;;;;;;;55.95;28.25;;;10.70;99.90;;;;;;5093377;28;20121;-73
2021/12/15 10:03:14;;;;;;;47.95;26.42;;;10.70;99.90;;;;;;5092815;28;20119;-73
2021/12/15 10:05:54;;;;;;;46.33;25.10;;;10.70;99.90;;;;;;5093372;28;20075;-73
2021/12/15 10:19:51;;;;;;;46.10;26.10;;;10.60;99.90;;;;;;5093192;28;20067;-73
2021/12/15 10:22:42;;;;;;;46.83;24.65;;;10.60;99.90;;;;;;5091932;28;20066;-73
2021/12/15 10:25:24;;;;;;;46.60;25.50;;;10.60;99.90;;;;;;5072897;28;20405;-73
2021/12/15 10:28:09;;;;;;;50.03;25.30;;;10.70;99.90;;;;;;5073028;28;20047;-72
2021/12/15 10:30:45;;;;;;;45.60;25.02;;;10.70;99.90;;;;;;5072663;28;20343;-73
2021/12/15 10:33:19;;;;;;;47.95;25.83;;;10.70;99.90;;;;;;5078094;28;20028;-72
2021/12/15 10:35:49;;;;;;;47.25;25.88;;;10.70;99.90;;;;;;5094813;28;20342;-72
2021/12/15 10:38:18;;;;;;;45.35;24.50;;;10.80;99.90;;;;;;5096030;28;20039;-72
2021/12/15 10:41:21;;;;;;;49.47;25.52;;;10.90;99.90;;;;;;5096478;28;20405;-73
2021/12/15 10:43:47;;;;;;;43.17;23.65;;;11.00;99.90;;;;;;5013887;28;20038;-72
2021/12/15 10:46:15;;;;;;;46.60;22.88;;;11.00;99.90;;;;;;5061603;28;20148;-72
2021/12/15 10:48:58;;;;;;;43.17;24.20;;;11.00;99.90;;;;;;5076257;28;20108;-73
2021/12/15 10:51:44;;;;;;;42.72;25.13;;;11.00;99.90;;;;;;5076185;28;20040;-72
2021/12/15 10:54:24;;;;;;;47.88;26.13;;;11.00;99.90;;;;;;5089240;28;20076;-72
2021/12/15 10:56:54;;;;;;;48.90;24.73;;;11.10;99.90;;;;;;5096524;28;20062;-73
2021/12/15 10:59:22;;;;;;;45.50;25.13;;;11.00;99.90;;;;;;5096135;28;20040;-73
2021/12/15 11:01:56;;;;;;;47.97;26.02;;;11.10;99.90;;;;;;5096209;28;20370;-73
2021/12/15 11:04:46;;;;;;;46.47;25.40;;;11.10;99.90;;;;;;5095548;28;20101;-73
2021/12/15 11:07:17;;;;;;;42.50;23.63;;;11.10;99.90;;;;;;5075920;28;20055;-73
2021/12/15 11:10:15;;;;;;;44.47;23.38;;;11.10;99.90;;;;;;5075867;28;20032;-72
2021/12/15 11:12:47;;;;;;;44.15;23.88;;;11.20;99.90;;;;;;5076160;28;20066;-74
2021/12/15 11:15:12;;;;;;;42.22;24.63;;;11.00;99.90;;;;;;5075189;28;20067;-70
2021/12/15 11:17:47;;;;;;;39.60;22.33;;;11.10;99.90;;;;;;5075841;28;20040;-74
2021/12/15 11:20:17;;;;;;;38.90;22.15;;;11.10;99.90;;;;;;5076174;28;20078;-73
2021/12/15 11:22:53;;;;;;;38.33;22.23;;;11.10;99.90;;;;;;5076906;28;20441;-72
2021/12/15 11:25:21;;;;;;;42.22;21.42;;;11.10;99.90;;;;;;5086921;28;20106;-75
2021/12/15 11:27:57;;;;;;;41.83;21.83;;;11.10;99.90;;;;;;5088497;28;20089;-75
2021/12/15 11:30:46;;;;;;;37.97;21.10;;;11.20;99.90;;;;;;5095604;28;20036;-72
2021/12/15 11:33:29;;;;;;;35.25;21.40;;;11.20;99.90;;;;;;5094231;28;20119;-74
2021/12/15 11:35:54;;;;;;;36.13;20.17;;;11.20;99.90;;;;;;5095113;28;20043;-73
2021/12/15 11:38:32;;;;;;;40.25;21.73;;;11.30;99.90;;;;;;5095052;28;20036;-76
2021/12/15 11:40:57;;;;;;;34.78;19.80;;;11.20;99.90;;;;;;5095223;28;20040;-72
2021/12/15 11:43:36;;;;;;;33.05;19.25;;;11.30;99.90;;;;;;5094663;28;20126;-74
2021/12/15 11:46:25;;;;;;;32.95;18.67;;;11.30;99.90;;;;;;5094053;28;20074;-73
2021/12/15 11:49:02;;;;;;;33.25;18.65;;;11.20;99.90;;;;;;5095137;28;20044;-73
2021/12/15 11:51:59;;;;;;;29.65;17.35;;;11.30;99.90;;;;;;5092934;28;20036;-74
2021/12/15 11:54:49;;;;;;;32.38;17.67;;;11.30;99.90;;;;;;5089075;28;20044;-74
2021/12/15 11:57:27;;;;;;;30.27;17.08;;;11.30;99.90;;;;;;5086117;28;20048;-74
2021/12/15 11:59:55;;;;;;;28.67;16.80;;;11.30;99.90;;;;;;5076845;28;20040;-74
2021/12/15 12:02:30;;;;;;;26.90;15.88;;;11.40;99.90;;;;;;5074726;28;20052;-74
2021/12/15 12:05:00;;;;;;;;;;;11.40;99.90;;;;;;5094061;28;20040;-74
2021/12/15 12:07:32;;;;;;;29.77;15.95;;;11.30;99.90;;;;;;5095439;28;19935;-74
2021/12/15 12:10:13;;;;;;;27.58;15.90;;;11.30;99.90;;;;;;5094749;28;20508;-74
2021/12/15 12:12:51;;;;;;;26.42;15.27;;;11.40;99.90;;;;;;5094982;28;20149;-74
2021/12/15 12:15:20;;;;;;;27.17;15.15;;;11.40;99.90;;;;;;5074290;28;20153;-70
2021/12/15 12:17:49;;;;;;;29.10;15.35;;;11.40;99.90;;;;;;5074360;28;20178;-74
2021/12/15 12:20:21;;;;;;;25.85;15.02;;;11.40;99.90;;;;;;5074205;28;20098;-73
2021/12/15 12:22:49;;;;;;;28.02;15.95;;;11.30;99.90;;;;;;5075309;28;20055;-72
2021/12/15 12:25:17;;;;;;;26.40;15.82;;;11.30;99.90;;;;;;5079748;28;20044;-73
2021/12/15 12:27:44;;;;;;;25.65;15.77;;;11.30;99.90;;;;;;5073456;28;20466;-73
2021/12/15 12:30:14;;;;;;;26.77;15.07;;;11.20;99.90;;;;;;5074436;28;20055;-73
2021/12/15 12:32:40;;;;;;;25.33;14.27;;;11.20;99.90;;;;;;5074050;28;20129;-74
2021/12/15 12:35:10;;;;;;;26.63;14.75;;;11.30;99.90;;;;;;5094005;28;20114;-74
2021/12/15 12:37:38;;;;;;;26.05;14.90;;;11.20;99.90;;;;;;5094330;28;20044;-73
2021/12/15 12:40:17;;;;;;;33.60;18.05;;;11.20;99.90;;;;;;5094406;28;20040;-74
2021/12/15 12:42:43;;;;;;;37.13;19.02;;;11.20;99.90;;;;;;5094150;28;20105;-73
2021/12/15 12:45:18;;;;;;;29.85;15.77;;;11.20;99.90;;;;;;5093757;28;20036;-73
2021/12/15 12:59:44;;;;;;;25.38;13.73;;;11.20;99.90;;;;;;5093101;28;20048;-73
2021/12/15 13:02:33;;;;;;;25.25;14.25;;;11.20;99.90;;;;;;5093937;28;20360;-73
2021/12/15 13:04:59;;;;;;;25.67;13.85;;;11.20;99.90;;;;;;5093450;28;20063;-73
2021/12/15 13:07:52;;;;;;;21.00;11.30;;;11.20;99.90;;;;;;5093639;28;20028;-73
2021/12/15 13:10:19;;;;;;;20.75;10.35;;;11.20;99.90;;;;;;5093767;28;20476;-75
2021/12/15 13:12:49;;;;;;;20.67;11.13;;;11.20;99.90;;;;;;5092283;28;20457;-74
2021/12/15 13:15:21;;;;;;;20.58;10.38;;;11.30;99.90;;;;;;5073897;28;20056;-72
2021/12/15 13:18:01;;;;;;;23.45;11.52;;;11.30;99.90;;;;;;5073670;28;20037;-73
2021/12/15 13:20:30;;;;;;;23.25;9.85;;;11.30;99.90;;;;;;5073415;28;20056;-73
2021/12/15 13:23:30;;;;;;;27.90;10.48;;;11.30;99.90;;;;;;5075076;28;20094;-73
2021/12/15 13:28:50;;;;;;;;;;;11.20;99.90;;;;;;5094291;28;20054;-72
2021/12/15 13:31:26;;;;;;;18.23;8.38;;;11.30;99.90;;;;;;5093638;28;19999;-73
2021/12/15 13:33:59;;;;;;;24.63;9.48;;;11.30;99.90;;;;;;5092225;28;20044;-73
2021/12/15 13:36:38;;;;;;;16.92;8.13;;;11.20;99.90;;;;;;5093491;28;20035;-74
2021/12/15 13:39:07;;;;;;;17.48;8.10;;;11.20;99.90;;;;;;5093712;28;20069;-73
2021/12/15 13:44:04;;;;;;;18.35;6.85;;;11.20;99.90;;;;;;5092795;28;20059;-74
2021/12/15 13:46:33;;;;;;;15.75;6.50;;;11.10;99.90;;;;;;5094274;28;20119;-73
2021/12/15 13:49:01;;;;;;;16.73;4.82;;;11.20;99.90;;;;;;5093463;28;20044;-73
2021/12/15 13:52:04;;;;;;;14.82;5.93;;;11.20;99.90;;;;;;5072996;28;20555;-73
2021/12/15 13:54:32;;;;;;;10.60;4.38;;;11.20;99.90;;;;;;5080083;28;20032;-75
2021/12/15 13:57:01;;;;;;;14.35;4.50;;;11.20;99.90;;;;;;5073381;28;20091;-73
2021/12/15 13:59:36;;;;;;;11.52;3.88;;;11.20;99.90;;;;;;5066939;28;20058;-73
2021/12/15 14:02:29;;;;;;;9.90;3.40;;;11.10;99.90;;;;;;5092995;28;20051;-74
2021/12/15 14:05:03;;;;;;;9.93;3.20;;;11.00;99.90;;;;;;5091912;28;20051;-74
2021/12/15 14:07:28;;;;;;;5.47;2.35;;;11.00;99.90;;;;;;5093457;28;20051;-73
2021/12/15 14:10:16;;;;;;;8.43;1.80;;;11.00;99.90;;;;;;5095669;28;20044;-73